Time;durP1;ratioP1;P1;durP2;ratioP2;P2;SDS_P1;SDS_P2;PMS_P1;PMS_P2;Temp;Humidity;BMP_temperature;BMP_pressure;BME280_temperature;BME280_humidity;BME280_pressure;Samples;Min_cycle;Max_cycle;Signal;HPM_P1;HPM_P2
2023/09/03 00:02:00;;;;;;;4.03;1.92;;;;;;;11.44;56.15;102583.13;4987549;28;20046;-70
2023/09/03 00:04:26;;;;;;;3.13;1.60;;;;;;;11.44;56.06;102588.34;4979608;28;20033;-71
2023/09/03 00:06:51;;;;;;;2.92;1.60;;;;;;;11.52;55.79;102582.97;4982223;28;21232;-70
2023/09/03 00:09:17;;;;;;;1.75;1.50;;;;;;;11.52;55.54;102580.34;4978515;28;20492;-69
2023/09/03 00:11:42;;;;;;;6.22;2.33;;;;;;;11.27;55.94;102564.19;4982531;28;20038;-68
2023/09/03 00:14:08;;;;;;;5.00;1.83;;;;;;;11.13;56.16;102571.38;4980811;28;20073;-69
2023/09/03 00:16:33;;;;;;;2.17;1.80;;;;;;;11.34;56.16;102570.19;4980433;28;20041;-69
2023/09/03 00:18:59;;;;;;;2.42;1.52;;;;;;;11.36;56.14;102571.03;4987905;28;20050;-69
2023/09/03 00:21:24;;;;;;;2.83;1.55;;;;;;;11.38;56.11;102571.88;4980223;28;20045;-69
2023/09/03 00:23:50;;;;;;;5.72;1.70;;;;;;;11.25;55.98;102571.22;4990832;28;20066;-69
2023/09/03 00:26:19;;;;;;;2.90;1.77;;;;;;;11.32;55.74;102567.59;4994959;28;20038;-68
2023/09/03 00:28:50;;;;;;;2.13;1.25;;;;;;;11.33;55.85;102571.97;4992951;28;20042;-69
2023/09/03 00:31:23;;;;;;;3.00;1.80;;;;;;;11.38;55.42;102577.97;5000737;28;20378;-69
2023/09/03 00:33:49;;;;;;;2.60;1.25;;;;;;;11.26;55.62;102575.53;5012117;28;20037;-69
2023/09/03 00:36:14;;;;;;;3.08;1.58;;;;;;;11.18;55.45;102580.06;4987091;28;20034;-69
2023/09/03 00:38:42;;;;;;;2.42;1.45;;;;;;;11.16;56.20;102579.22;4981704;28;20046;-69
2023/09/03 00:41:08;;;;;;;1.70;1.45;;;;;;;11.31;56.14;102585.94;4994798;28;20491;-69
2023/09/03 00:43:36;;;;;;;1.80;1.30;;;;;;;11.45;56.00;102582.22;4968311;28;20049;-69
2023/09/03 00:46:04;;;;;;;2.03;1.13;;;;;;;11.50;55.92;102587.38;4980761;28;20854;-68
2023/09/03 00:48:30;;;;;;;4.18;1.30;;;;;;;11.45;55.63;102584.84;4981998;28;20097;-70
2023/09/03 00:51:01;;;;;;;4.88;1.40;;;;;;;11.58;55.65;102585.50;4961211;28;20136;-70
2023/09/03 00:53:31;;;;;;;1.50;1.10;;;;;;;11.60;55.46;102586.34;4985919;28;20128;-71
2023/09/03 00:55:56;;;;;;;2.03;1.42;;;;;;;11.55;55.25;102574.19;4979353;28;20473;-71
2023/09/03 00:58:26;;;;;;;3.60;1.65;;;;;;;11.40;55.69;102557.88;4986268;28;20145;-70
2023/09/03 01:00:53;;;;;;;2.22;1.42;;;;;;;11.48;55.86;102562.09;4969641;28;20124;-70
2023/09/03 01:03:28;;;;;;;2.97;1.80;;;;;;;11.54;55.66;102552.41;4991491;28;20078;-71
2023/09/03 01:05:54;;;;;;;4.07;2.13;;;;;;;11.59;55.55;102547.94;4962905;28;20476;-71
2023/09/03 01:08:20;;;;;;;3.63;2.10;;;;;;;11.61;55.76;102545.31;4993716;28;20503;-70
2023/09/03 01:10:48;;;;;;;2.90;2.17;;;;;;;11.61;55.40;102542.69;4989659;28;20041;-70
2023/09/03 01:13:29;;;;;;;5.60;1.80;;;;;;;11.50;55.64;102537.63;4969719;28;20153;-70
2023/09/03 01:16:01;;;;;;;5.78;1.88;;;;;;;11.46;55.82;102531.59;4977647;28;20052;-71
2023/09/03 01:18:30;;;;;;;3.30;1.80;;;;;;;11.56;55.76;102540.16;4960273;28;20145;-70
2023/09/03 01:21:21;;;;;;;2.58;1.95;;;;;;;11.56;55.68;102539.28;4978056;28;20045;-70
2023/09/03 01:24:18;;;;;;;2.05;1.85;;;;;;;11.61;55.55;102538.28;4979218;28;20129;-70
2023/09/03 01:27:32;;;;;;;2.15;1.48;;;;;;;11.60;55.67;102530.50;4996096;28;20738;-70
2023/09/03 01:29:59;;;;;;;2.70;2.28;;;;;;;11.58;55.55;102522.66;4986613;28;20046;-71
2023/09/03 01:32:25;;;;;;;3.38;1.88;;;;;;;11.47;55.60;102524.59;4977400;28;20046;-70
2023/09/03 01:34:53;;;;;;;4.10;1.80;;;;;;;11.46;55.85;102515.88;4981351;28;20619;-70
2023/09/03 01:37:19;;;;;;;3.65;2.50;;;;;;;11.42;55.94;102508.97;4977786;28;20501;-70
2023/09/03 01:39:45;;;;;;;2.60;2.10;;;;;;;11.46;56.08;102496.66;4980089;28;20036;-67
2023/09/03 01:42:11;;;;;;;4.18;2.05;;;;;;;11.46;56.14;102497.56;4996196;28;20038;-67
2023/09/03 01:44:37;;;;;;;2.97;2.78;;;;;;;11.50;55.99;102487.03;4977042;28;20065;-67
2023/09/03 01:47:20;;;;;;;3.50;2.10;;;;;;;11.59;55.88;102472.00;4986873;28;20038;-67
2023/09/03 01:50:17;;;;;;;4.18;2.30;;;;;;;11.61;55.92;102477.22;4984045;28;20416;-67
2023/09/03 01:52:49;;;;;;;3.30;2.42;;;;;;;11.62;56.04;102490.28;4977681;28;20049;-66
2023/09/03 01:55:18;;;;;;;5.13;2.65;;;;;;;11.73;55.82;102492.69;4976086;28;20751;-67
2023/09/03 01:57:55;;;;;;;3.58;2.70;;;;;;;11.68;56.11;102503.25;4982214;28;20042;-67
2023/09/03 02:00:22;;;;;;;4.78;2.88;;;;;;;11.70;55.62;102505.84;4995740;28;20027;-67
2023/09/03 02:02:52;;;;;;;5.10;3.58;;;;;;;11.79;55.39;102499.59;4987066;28;20411;-67
2023/09/03 02:05:20;;;;;;;3.80;2.45;;;;;;;11.75;55.43;102503.13;4987409;28;20092;-67
2023/09/03 02:07:45;;;;;;;4.07;2.58;;;;;;;11.71;55.38;102507.59;4983296;28;20048;-68
2023/09/03 02:10:11;;;;;;;9.57;4.00;;;;;;;11.63;55.25;102517.31;4986836;28;20038;-68
2023/09/03 02:12:39;;;;;;;2.90;2.22;;;;;;;11.57;55.45;102522.66;4979531;28;20120;-69
2023/09/03 02:15:08;;;;;;;4.15;2.80;;;;;;;11.53;55.45;102524.50;4960229;28;20038;-68
2023/09/03 02:17:34;;;;;;;3.33;2.47;;;;;;;11.49;55.36;102537.69;4966115;28;20079;-67
2023/09/03 02:20:07;;;;;;;3.92;2.40;;;;;;;11.39;55.35;102532.56;4997505;28;20041;-68
2023/09/03 02:22:35;;;;;;;3.70;3.00;;;;;;;11.29;55.56;102546.72;4977468;28;20062;-67
2023/09/03 02:25:01;;;;;;;2.85;2.47;;;;;;;11.25;55.65;102552.88;4986189;28;20146;-68
2023/09/03 02:27:26;;;;;;;5.85;3.03;;;;;;;11.16;56.11;102555.66;4985166;28;20125;-69
2023/09/03 02:29:53;;;;;;;6.93;4.22;;;;;;;11.09;56.34;102559.25;4990432;28;20037;-68
2023/09/03 02:32:18;;;;;;;3.35;2.97;;;;;;;11.04;56.34;102561.94;4943601;28;20207;-68
2023/09/03 02:34:44;;;;;;;4.78;3.15;;;;;;;10.91;56.44;102555.16;4965809;28;20430;-70
2023/09/03 02:37:12;;;;;;;3.10;2.78;;;;;;;10.87;56.44;102554.34;4969618;28;20034;-72
2023/09/03 02:39:39;;;;;;;2.88;2.47;;;;;;;10.87;56.51;102553.47;4970431;28;20035;-71
2023/09/03 02:42:07;;;;;;;3.17;2.58;;;;;;;10.87;56.13;102559.56;4989227;28;20038;-71
2023/09/03 02:44:33;;;;;;;2.78;2.28;;;;;;;10.78;56.29;102557.91;4987633;28;20041;-71
2023/09/03 02:47:01;;;;;;;3.80;3.30;;;;;;;10.62;56.76;102549.41;5000228;28;20080;-71
2023/09/03 02:49:26;;;;;;;5.38;2.92;;;;;;;10.61;56.95;102552.03;4982174;28;20046;-71
2023/09/03 02:51:51;;;;;;;3.75;2.63;;;;;;;10.68;56.65;102552.81;4998987;28;20145;-71
2023/09/03 02:54:18;;;;;;;3.47;2.17;;;;;;;10.67;56.84;102551.97;4981681;28;20137;-72
2023/09/03 02:56:43;;;;;;;3.28;2.40;;;;;;;10.81;56.42;102557.88;4983941;28;20125;-72
2023/09/03 02:59:09;;;;;;;3.28;1.92;;;;;;;10.82;56.40;102551.78;4988916;28;20137;-72
2023/09/03 03:01:35;;;;;;;2.35;1.75;;;;;;;10.83;56.48;102552.66;4992563;28;20034;-71
2023/09/03 03:04:04;;;;;;;2.65;2.15;;;;;;;10.90;56.06;102549.03;4969016;28;20058;-72
2023/09/03 03:06:29;;;;;;;4.20;3.08;;;;;;;10.90;56.01;102548.19;4980211;28;20030;-71
2023/09/03 03:08:55;;;;;;;2.25;1.92;;;;;;;10.91;56.05;102552.56;4979304;28;20508;-71
2023/09/03 03:11:20;;;;;;;2.40;2.00;;;;;;;10.91;55.95;102539.47;4958868;28;20577;-72
2023/09/03 03:13:53;;;;;;;3.03;1.98;;;;;;;10.74;56.19;102540.53;4982661;28;20054;-72
2023/09/03 03:16:22;;;;;;;4.13;1.42;;;;;;;10.63;56.32;102543.28;4978701;28;20038;-72
2023/09/03 03:18:51;;;;;;;2.13;1.40;;;;;;;10.65;56.42;102551.13;4993074;28;20054;-74
2023/09/03 03:21:22;;;;;;;3.10;1.90;;;;;;;10.68;56.68;102548.44;4998384;28;20523;-72
2023/09/03 03:23:53;;;;;;;;;;;;;;;10.76;56.26;102545.75;4979212;28;20589;-72
2023/09/03 03:26:26;;;;;;;2.55;2.33;;;;;;;10.68;56.47;102544.97;4978252;28;19917;-71
2023/09/03 03:28:52;;;;;;;3.85;2.83;;;;;;;10.55;56.54;102550.41;4973165;28;21163;-71
2023/09/03 03:31:19;;;;;;;3.83;2.80;;;;;;;10.57;56.61;102553.84;4986530;28;20084;-72
2023/09/03 03:33:51;;;;;;;2.75;1.90;;;;;;;10.60;56.82;102553.81;4983505;28;20041;-73
2023/09/03 03:36:24;;;;;;;4.32;2.50;;;;;;;10.56;56.96;102552.09;4975782;28;20037;-73
2023/09/03 03:38:55;;;;;;;3.75;2.50;;;;;;;10.59;57.00;102549.47;4998593;28;20050;-71
2023/09/03 03:41:21;;;;;;;3.30;2.53;;;;;;;10.64;56.89;102555.50;4967838;28;20034;-71
2023/09/03 03:43:51;;;;;;;4.35;2.38;;;;;;;10.68;56.78;102552.81;4986771;28;20104;-71
2023/09/03 03:46:19;;;;;;;3.28;2.55;;;;;;;10.71;56.78;102564.13;4972137;28;20034;-71
2023/09/03 03:48:48;;;;;;;3.70;2.90;;;;;;;10.76;56.59;102570.16;4984715;28;20411;-72
2023/09/03 03:51:16;;;;;;;3.20;2.42;;;;;;;10.74;56.95;102563.22;5001686;28;20037;-73
2023/09/03 03:53:42;;;;;;;2.92;2.63;;;;;;;10.78;56.94;102571.00;4983465;28;20049;-72
2023/09/03 03:56:11;;;;;;;3.08;2.63;;;;;;;10.77;56.58;102576.22;4985797;28;20123;-71
2023/09/03 03:58:40;;;;;;;2.55;2.03;;;;;;;10.86;56.20;102586.63;4996236;28;20504;-71
2023/09/03 04:01:16;;;;;;;3.25;2.20;;;;;;;10.90;56.29;102590.91;4988990;28;20125;-71
2023/09/03 04:03:42;;;;;;;4.55;1.95;;;;;;;10.88;56.10;102595.28;4987202;28;20046;-71
2023/09/03 04:06:07;;;;;;;4.57;2.78;;;;;;;10.88;55.98;102602.28;4987382;28;20251;-72
2023/09/03 04:08:36;;;;;;;3.65;2.47;;;;;;;10.80;56.07;102608.47;4975518;28;20528;-71
2023/09/03 04:11:06;;;;;;;3.83;2.55;;;;;;;10.78;56.47;102620.69;4962011;28;20041;-69
2023/09/03 04:13:32;;;;;;;4.15;2.50;;;;;;;10.73;56.39;102619.03;4972195;28;20048;-69
2023/09/03 04:15:58;;;;;;;5.93;3.00;;;;;;;10.63;56.35;102628.72;4980257;28;20050;-68
2023/09/03 04:18:25;;;;;;;3.88;2.72;;;;;;;10.53;56.72;102625.38;4980548;28;20146;-69
2023/09/03 04:21:03;;;;;;;4.43;3.13;;;;;;;10.53;56.98;102621.91;4969746;28;20075;-69
2023/09/03 04:23:34;;;;;;;3.75;2.40;;;;;;;10.51;56.80;102613.19;4983105;28;20050;-67
2023/09/03 04:26:02;;;;;;;3.33;2.55;;;;;;;10.46;57.04;102621.09;4987919;28;20035;-68
2023/09/03 04:28:30;;;;;;;2.75;2.28;;;;;;;10.58;57.01;102631.41;4969356;28;20046;-69
2023/09/03 04:30:59;;;;;;;2.47;1.83;;;;;;;10.67;56.67;102629.56;4965975;28;20036;-69
2023/09/03 04:33:27;;;;;;;3.03;2.30;;;;;;;10.63;56.54;102628.72;4981257;28;20108;-70
2023/09/03 04:35:57;;;;;;;2.58;1.98;;;;;;;10.69;56.81;102627.78;4996444;28;20093;-70
2023/09/03 04:38:23;;;;;;;6.88;2.17;;;;;;;10.79;56.43;102626.78;4981393;28;20044;-70
2023/09/03 04:40:51;;;;;;;2.75;2.30;;;;;;;10.75;56.56;102627.69;4980022;28;20037;-70
2023/09/03 04:43:17;;;;;;;3.28;2.08;;;;;;;10.68;56.29;102631.28;4981657;28;20140;-70
2023/09/03 04:45:52;;;;;;;2.47;1.65;;;;;;;10.64;56.49;102630.47;4979542;28;20040;-70
2023/09/03 04:48:20;;;;;;;2.13;1.92;;;;;;;10.64;56.60;102630.47;4966324;28;20034;-71
2023/09/03 04:50:50;;;;;;;3.25;2.38;;;;;;;10.66;56.64;102638.28;4980279;28;20057;-69
2023/09/03 04:53:15;;;;;;;3.25;2.47;;;;;;;10.76;56.33;102634.66;4976183;28;20505;-69
2023/09/03 04:55:43;;;;;;;4.20;2.33;;;;;;;10.77;56.74;102639.00;4967666;28;20034;-72
2023/09/03 04:58:09;;;;;;;4.25;3.47;;;;;;;10.87;56.52;102624.97;4961724;28;20054;-74
2023/09/03 05:00:35;;;;;;;3.15;2.33;;;;;;;10.96;56.50;102632.69;4959756;28;20076;-72
2023/09/03 05:03:04;;;;;;;5.80;2.78;;;;;;;11.07;56.37;102634.31;4969115;28;20050;-78
2023/09/03 05:05:40;;;;;;;3.50;2.33;;;;;;;11.03;56.31;102639.56;4985266;28;20590;-76
2023/09/03 05:08:08;;;;;;;3.22;2.72;;;;;;;11.12;56.15;102632.47;4981930;28;20137;-76
2023/09/03 05:10:39;;;;;;;7.60;2.88;;;;;;;11.02;56.36;102642.22;4979826;28;21047;-73
2023/09/03 05:13:06;;;;;;;6.65;2.83;;;;;;;11.26;55.85;102638.38;4972425;28;20563;-70
2023/09/03 05:15:34;;;;;;;5.95;3.13;;;;;;;11.30;55.94;102650.53;4980011;28;20026;-72
2023/09/03 05:18:00;;;;;;;7.25;3.28;;;;;;;11.33;55.71;102663.59;4985736;28;20073;-75
2023/09/03 05:20:26;;;;;;;4.40;3.08;;;;;;;11.38;55.28;102655.66;4971019;28;20026;-74
2023/09/03 05:22:52;;;;;;;7.50;3.35;;;;;;;11.38;55.59;102659.13;4980718;28;20077;-74
2023/09/03 05:25:17;;;;;;;4.88;3.40;;;;;;;11.54;54.89;102669.38;4988084;28;20531;-72
2023/09/03 05:27:45;;;;;;;4.68;4.05;;;;;;;11.73;55.44;102660.34;4985670;28;20046;-72
2023/09/03 05:30:10;;;;;;;7.20;3.40;;;;;;;11.87;54.37;102662.75;4972747;28;20034;-73
2023/09/03 05:32:39;;;;;;;7.45;3.53;;;;;;;11.85;55.02;102654.91;4981890;28;20236;-72
2023/09/03 05:35:09;;;;;;;4.47;3.53;;;;;;;12.36;54.39;102658.41;4991887;28;20037;-74
2023/09/03 05:37:34;;;;;;;4.90;2.97;;;;;;;13.59;51.91;102655.78;4981365;28;20495;-69
2023/09/03 05:40:00;;;;;;;4.20;3.60;;;;;;;15.19;47.52;102652.19;4989094;28;20030;-71
2023/09/03 05:42:26;;;;;;;5.78;2.55;;;;;;;15.96;45.91;102666.38;4977539;28;20058;-72
2023/09/03 05:44:56;;;;;;;3.15;2.38;;;;;;;15.45;45.20;102671.63;4962477;28;20041;-72
2023/09/03 05:47:22;;;;;;;4.97;2.65;;;;;;;14.71;47.99;102656.28;4968609;28;20129;-71
2023/09/03 05:49:55;;;;;;;3.30;2.95;;;;;;;14.58;48.36;102665.44;4983326;28;20065;-73
2023/09/03 05:52:20;;;;;;;3.15;2.80;;;;;;;14.17;48.71;102670.06;4978003;28;20145;-73
2023/09/03 05:54:46;;;;;;;4.15;3.00;;;;;;;14.24;49.70;102671.63;4977982;28;20176;-74
2023/09/03 05:57:12;;;;;;;2.85;2.30;;;;;;;;;;4986813;28;20038;-77
2023/09/03 05:59:38;;;;;;;4.38;2.75;;;;;;;15.24;47.36;102665.25;4967636;28;20045;-76
2023/09/03 06:02:03;;;;;;;4.30;2.63;;;;;;;16.15;46.09;102676.31;4973230;28;20037;-76
2023/09/03 06:04:37;;;;;;;3.35;2.25;;;;;;;17.41;44.67;102661.03;4981774;28;20057;-75
2023/09/03 06:07:04;;;;;;;2.90;2.25;;;;;;;18.68;40.53;102663.47;4989694;28;20090;-72
2023/09/03 06:09:29;;;;;;;3.58;1.95;;;;;;;19.92;38.53;102663.69;4985967;28;20571;-71
2023/09/03 06:11:55;;;;;;;3.90;2.08;;;;;;;21.40;35.91;102666.28;4998782;28;20113;-70
2023/09/03 06:14:22;;;;;;;2.65;2.45;;;;;;;21.02;33.81;102669.34;4980414;28;20129;-70
2023/09/03 06:16:48;;;;;;;5.50;1.88;;;;;;;20.07;35.61;102670.84;4968898;28;20102;-70
2023/09/03 06:19:14;;;;;;;4.65;1.30;;;;;;;18.99;39.61;102661.19;4979822;28;20053;-69
2023/09/03 06:21:39;;;;;;;1.95;1.17;;;;;;;18.81;39.43;102663.78;4979011;28;20153;-69
2023/09/03 06:24:05;;;;;;;3.00;1.88;;;;;;;19.23;37.86;102670.66;4983321;28;20056;-70
2023/09/03 06:26:31;;;;;;;3.53;1.77;;;;;;;20.23;37.50;102678.91;4994874;28;20040;-69
2023/09/03 06:28:57;;;;;;;5.30;1.40;;;;;;;22.49;33.67;102673.09;4978137;28;20050;-69
2023/09/03 06:31:22;;;;;;;2.10;1.15;;;;;;;23.87;30.48;102680.09;4978720;28;20048;-69
2023/09/03 06:33:48;;;;;;;3.47;0.93;;;;;;;24.11;30.46;102674.88;4979344;28;20136;-70
2023/09/03 06:36:18;;;;;;;1.63;1.33;;;;;;;24.67;28.83;102676.31;4982361;28;20096;-69
2023/09/03 06:38:44;;;;;;;1.95;1.00;;;;;;;24.82;29.27;102661.84;4979633;28;20465;-70
2023/09/03 06:41:12;;;;;;;2.33;1.08;;;;;;;24.54;30.19;102673.69;4982712;28;20034;-69
2023/09/03 06:43:38;;;;;;;2.63;0.90;;;;;;;24.84;28.87;102674.13;4978816;28;20069;-69
2023/09/03 06:46:04;;;;;;;11.57;1.17;;;;;;;25.05;29.11;102674.38;4985845;28;20089;-70
2023/09/03 06:48:30;;;;;;;2.78;1.42;;;;;;;23.81;31.36;102686.69;4980876;28;20495;-72
2023/09/03 06:50:56;;;;;;;3.90;0.80;;;;;;;23.11;33.20;102683.38;4983695;28;20030;-70
2023/09/03 06:53:22;;;;;;;3.45;1.05;;;;;;;21.85;34.91;102694.69;4989493;28;20045;-71
2023/09/03 06:55:47;;;;;;;2.53;1.08;;;;;;;21.08;34.86;102698.25;4982592;28;20091;-71
2023/09/03 06:58:13;;;;;;;1.58;0.95;;;;;;;20.72;36.53;102701.97;4985798;28;20038;-71
2023/09/03 07:00:39;;;;;;;1.50;0.80;;;;;;;20.63;36.94;102698.00;4996739;28;20113;-71
2023/09/03 07:03:05;;;;;;;3.28;1.10;;;;;;;20.23;38.03;102699.28;4981024;28;20894;-71
2023/09/03 07:05:33;;;;;;;2.40;1.10;;;;;;;20.59;38.43;102695.59;4984040;28;20042;-70
2023/09/03 07:07:58;;;;;;;3.45;1.25;;;;;;;21.26;36.08;102701.66;4957871;28;20046;-70
2023/09/03 07:10:24;;;;;;;2.90;1.48;;;;;;;21.30;36.08;102700.53;4984826;28;20041;-69
2023/09/03 07:12:50;;;;;;;2.50;1.20;;;;;;;20.71;37.68;102701.13;4975573;28;20038;-70
2023/09/03 07:15:15;;;;;;;2.53;1.33;;;;;;;20.84;37.59;102697.78;4984426;28;20810;-71
2023/09/03 07:17:41;;;;;;;3.97;1.63;;;;;;;21.06;36.72;102695.66;4965177;28;20049;-71
2023/09/03 07:20:07;;;;;;;4.03;1.42;;;;;;;22.06;34.87;102692.53;4982724;28;20046;-69
2023/09/03 07:22:35;;;;;;;4.18;1.38;;;;;;;22.48;34.19;102690.03;4981076;28;20045;-68
2023/09/03 07:25:00;;;;;;;2.67;1.27;;;;;;;22.25;35.31;102691.44;4985904;28;20462;-69
2023/09/03 07:27:30;;;;;;;3.53;1.20;;;;;;;22.49;36.02;102689.06;4978958;28;20574;-67
2023/09/03 07:29:56;;;;;;;1.50;1.00;;;;;;;22.88;35.23;102696.38;4978980;28;20034;-67
2023/09/03 07:32:24;;;;;;;1.30;1.10;;;;;;;23.23;34.03;102701.25;4982304;28;20534;-67
2023/09/03 07:34:53;;;;;;;1.85;1.15;;;;;;;23.47;33.05;102693.44;4979776;28;20048;-67
2023/09/03 07:37:23;;;;;;;3.70;1.35;;;;;;;21.82;36.59;102702.00;4984262;28;20715;-67
2023/09/03 07:39:49;;;;;;;1.83;1.42;;;;;;;20.72;38.85;102709.94;4978701;28;20571;-68
2023/09/03 07:42:14;;;;;;;4.10;0.95;;;;;;;21.82;37.61;102709.97;4996942;28;20109;-68
2023/09/03 07:44:40;;;;;;;2.90;1.42;;;;;;;22.37;35.65;102712.84;4979420;28;20496;-68
2023/09/03 07:47:10;;;;;;;0.95;0.50;;;;;;;23.42;34.07;102717.75;4982363;28;20034;-68
2023/09/03 07:49:35;;;;;;;1.58;1.15;;;;;;;22.84;35.32;102726.00;4985146;28;20038;-68
2023/09/03 07:52:03;;;;;;;3.45;1.40;;;;;;;23.03;34.47;102731.00;4982165;28;20052;-68
2023/09/03 07:54:28;;;;;;;3.65;1.20;;;;;;;23.40;33.96;102730.34;4979254;28;20034;-68
2023/09/03 07:56:59;;;;;;;3.63;1.23;;;;;;;22.51;35.71;102730.63;4977566;28;20103;-68
2023/09/03 07:59:24;;;;;;;1.90;0.90;;;;;;;22.09;36.16;102735.00;4978904;28;20156;-68
2023/09/03 08:01:50;;;;;;;1.77;1.00;;;;;;;21.53;37.26;102736.50;4983621;28;20117;-67
2023/09/03 08:04:16;;;;;;;1.67;0.70;;;;;;;21.41;37.15;102742.50;4968992;28;20046;-68
2023/09/03 08:06:41;;;;;;;2.35;0.70;;;;;;;21.00;37.72;102732.38;4966509;28;20179;-67
2023/09/03 08:09:07;;;;;;;3.95;1.00;;;;;;;20.74;38.23;102737.28;4976941;28;20073;-68
2023/09/03 08:11:32;;;;;;;4.03;1.27;;;;;;;21.62;38.21;102733.28;4982149;28;20651;-68
2023/09/03 08:14:00;;;;;;;2.20;1.42;;;;;;;22.37;36.02;102733.31;4995889;28;20046;-68
2023/09/03 08:16:26;;;;;;;1.75;0.77;;;;;;;22.94;35.60;102733.31;4987661;28;20152;-68
2023/09/03 08:18:52;;;;;;;1.88;0.70;;;;;;;23.51;34.65;102732.31;4977435;28;20128;-68
2023/09/03 08:21:19;;;;;;;2.00;0.85;;;;;;;24.24;33.19;102736.31;4981352;28;20520;-68
2023/09/03 08:23:45;;;;;;;2.15;0.70;;;;;;;24.31;32.82;102742.09;4980523;28;20129;-69
2023/09/03 08:26:10;;;;;;;2.83;0.77;;;;;;;23.02;35.00;102739.97;4981255;28;20033;-68
2023/09/03 08:28:36;;;;;;;2.63;0.60;;;;;;;23.34;33.59;102736.13;4983606;28;20104;-68
2023/09/03 08:31:02;;;;;;;1.45;0.55;;;;;;;22.73;36.01;102740.00;4976501;28;20073;-68
2023/09/03 08:33:27;;;;;;;1.50;0.60;;;;;;;22.73;34.42;102751.50;4970961;28;20096;-68
2023/09/03 08:35:53;;;;;;;1.17;0.85;;;;;;;22.47;35.96;102757.56;4978209;28;20623;-68
2023/09/03 08:38:19;;;;;;;2.55;0.77;;;;;;;22.48;36.25;102762.81;4975735;28;20053;-67
2023/09/03 08:40:44;;;;;;;2.78;0.60;;;;;;;22.85;35.01;102762.34;4975472;28;20038;-69
2023/09/03 08:43:12;;;;;;;1.42;0.60;;;;;;;23.45;33.80;102763.88;4983380;28;20096;-68
2023/09/03 08:45:51;;;;;;;2.95;0.60;;;;;;;24.07;33.08;102776.69;4975637;28;20065;-68
2023/09/03 08:48:17;;;;;;;1.45;0.60;;;;;;;24.25;32.32;102764.72;4975727;28;20048;-68
2023/09/03 08:50:46;;;;;;;3.50;0.65;;;;;;;24.00;32.02;102765.56;4978311;28;20037;-68
2023/09/03 08:53:13;;;;;;;3.60;0.47;;;;;;;23.32;33.97;102762.03;4979464;28;20060;-70
2023/09/03 08:55:39;;;;;;;1.52;0.30;;;;;;;23.57;32.95;102760.41;4977048;28;20042;-68
2023/09/03 08:58:07;;;;;;;1.90;0.30;;;;;;;23.48;33.63;102766.38;4975322;28;20611;-68
2023/09/03 09:00:33;;;;;;;0.70;0.20;;;;;;;22.78;34.13;102760.09;4973560;28;20052;-69
2023/09/03 09:03:10;;;;;;;2.03;0.20;;;;;;;21.73;34.71;102770.78;4974619;28;20046;-67
2023/09/03 09:05:37;;;;;;;2.83;0.65;;;;;;;20.64;37.06;102767.94;4983459;28;20071;-67
2023/09/03 09:08:04;;;;;;;0.82;0.35;;;;;;;20.20;38.34;102773.75;4981414;28;20042;-67
2023/09/03 09:10:40;;;;;;;1.63;0.30;;;;;;;19.88;38.25;102778.88;4977186;28;20057;-68
2023/09/03 09:13:07;;;;;;;0.82;0.30;;;;;;;20.09;39.01;102780.47;4983191;28;20128;-68
2023/09/03 09:15:39;;;;;;;1.48;0.30;;;;;;;20.29;37.95;102789.25;4975581;28;20038;-68
2023/09/03 09:18:08;;;;;;;;;;;;;;;21.04;37.10;102782.66;4978273;28;20054;-68
2023/09/03 09:20:36;;;;;;;0.65;0.30;;;;;;;21.41;36.09;102791.22;4974568;28;19924;-68
2023/09/03 09:23:02;;;;;;;1.83;0.50;;;;;;;21.62;35.58;102786.50;4983432;28;20133;-68
2023/09/03 09:25:27;;;;;;;2.20;0.20;;;;;;;21.75;35.78;102778.69;4976588;28;20120;-68
2023/09/03 09:27:54;;;;;;;0.90;0.25;;;;;;;21.73;34.86;102780.56;4974454;28;20159;-68
2023/09/03 09:30:32;;;;;;;2.25;0.30;;;;;;;22.27;34.83;102786.31;4977415;28;20671;-68
2023/09/03 09:33:08;;;;;;;1.08;0.50;;;;;;;22.03;34.67;102788.59;4972882;28;20042;-68
2023/09/03 09:35:34;;;;;;;1.63;0.43;;;;;;;22.22;34.42;102787.50;4975745;28;20037;-68
2023/09/03 09:38:07;;;;;;;1.95;0.95;;;;;;;22.37;34.59;102781.25;4981344;28;20041;-68
2023/09/03 09:40:36;;;;;;;1.40;0.60;;;;;;;22.31;34.60;102779.81;4993630;28;20038;-68
2023/09/03 09:43:05;;;;;;;1.80;0.65;;;;;;;22.55;34.05;102788.13;4975156;28;20527;-68
2023/09/03 09:45:31;;;;;;;1.35;0.40;;;;;;;22.38;34.23;102793.63;4977344;28;20073;-68
2023/09/03 09:48:12;;;;;;;2.75;0.57;;;;;;;22.59;33.65;102802.13;4975341;28;20065;-68
2023/09/03 09:50:40;;;;;;;2.10;0.30;;;;;;;22.56;34.07;102810.28;4977202;28;20041;-68
2023/09/03 09:53:23;;;;;;;1.52;0.30;;;;;;;22.65;34.32;102803.53;4981379;28;20551;-68
2023/09/03 09:55:59;;;;;;;1.23;0.20;;;;;;;23.42;33.53;102808.47;4982741;28;20038;-68
2023/09/03 09:58:38;;;;;;;3.90;0.40;;;;;;;23.19;32.97;102817.09;4966859;28;20073;-68
2023/09/03 10:01:05;;;;;;;2.58;0.40;;;;;;;22.46;33.45;102822.47;4976286;28;20595;-68
2023/09/03 10:04:00;;;;;;;0.90;0.20;;;;;;;21.97;35.50;102826.22;4977430;28;20149;-69
2023/09/03 10:06:26;;;;;;;2.05;0.30;;;;;;;21.85;36.12;102816.28;4979887;28;20711;-68
2023/09/03 10:08:52;;;;;;;0.82;0.30;;;;;;;20.94;36.11;102816.81;4974631;28;20039;-68
2023/09/03 10:11:19;;;;;;;4.95;0.32;;;;;;;20.67;37.79;102819.13;4958790;28;20620;-68
2023/09/03 10:13:47;;;;;;;0.80;0.35;;;;;;;21.26;36.39;102814.19;4959583;28;20050;-67
2023/09/03 10:16:17;;;;;;;0.63;0.30;;;;;;;21.99;36.22;102819.00;4958433;28;20096;-68
2023/09/03 10:18:49;;;;;;;1.10;0.25;;;;;;;22.46;32.99;102822.47;4977089;28;20054;-67
2023/09/03 10:21:24;;;;;;;0.80;0.30;;;;;;;22.23;32.73;102823.88;4979908;28;20035;-70
2023/09/03 10:23:51;;;;;;;2.00;0.25;;;;;;;22.39;34.06;102819.31;4983977;28;20041;-69
2023/09/03 10:26:37;;;;;;;0.88;0.20;;;;;;;23.12;32.38;102821.09;4995928;28;20034;-68
2023/09/03 10:29:05;;;;;;;2.35;0.20;;;;;;;23.34;32.90;102826.81;4987687;28;20060;-68
2023/09/03 10:31:33;;;;;;;0.65;0.20;;;;;;;22.90;32.88;102825.13;4998157;28;20033;-68
2023/09/03 10:33:59;;;;;;;0.80;0.20;;;;;;;22.25;33.96;102817.50;4978130;28;20648;-68
2023/09/03 10:36:27;;;;;;;1.52;0.30;;;;;;;22.02;34.71;102824.13;4983557;28;20293;-69
2023/09/03 10:38:52;;;;;;;1.63;0.30;;;;;;;21.32;34.46;102827.16;4981667;28;20181;-68
2023/09/03 10:41:22;;;;;;;1.23;0.63;;;;;;;21.44;34.72;102830.09;4981805;28;20045;-68
2023/09/03 10:43:53;;;;;;;2.05;0.20;;;;;;;22.02;34.10;102820.63;4962060;28;20521;-68
2023/09/03 10:46:21;;;;;;;0.43;0.20;;;;;;;22.75;33.13;102818.06;4963171;28;20038;-68
2023/09/03 10:48:52;;;;;;;0.50;0.20;;;;;;;22.94;31.57;102817.75;4978653;28;20186;-68
2023/09/03 10:51:32;;;;;;;2.78;0.20;;;;;;;23.69;30.75;102810.31;4979130;28;20046;-69
2023/09/03 10:54:16;;;;;;;0.40;0.20;;;;;;;23.05;30.70;102822.44;4996171;28;20603;-68
2023/09/03 10:57:06;;;;;;;2.55;0.30;;;;;;;22.67;31.90;102820.31;4982519;28;20677;-68
2023/09/03 11:00:06;;;;;;;0.88;0.20;;;;;;;22.27;32.80;102812.06;4996442;28;20671;-68
2023/09/03 11:02:33;;;;;;;1.20;0.20;;;;;;;21.85;32.45;102810.97;4981179;28;20041;-68
2023/09/03 11:05:13;;;;;;;0.50;0.20;;;;;;;22.16;33.42;102821.56;4983552;28;20030;-68
2023/09/03 11:07:44;;;;;;;0.82;0.20;;;;;;;22.24;32.64;102822.91;4969060;28;20077;-68
2023/09/03 11:10:24;;;;;;;1.40;0.25;;;;;;;23.00;31.86;102828.91;4981837;28;20062;-68
2023/09/03 11:12:52;;;;;;;1.05;0.40;;;;;;;23.20;31.78;102819.66;4958021;28;20477;-68
2023/09/03 11:15:18;;;;;;;1.88;0.20;;;;;;;22.90;31.38;102817.13;4981521;28;20515;-69
2023/09/03 11:17:55;;;;;;;1.77;0.30;;;;;;;22.88;33.36;102827.03;4979907;28;20042;-68
2023/09/03 11:20:31;;;;;;;3.72;0.40;;;;;;;22.02;32.79;102834.78;4981841;28;20067;-68
2023/09/03 11:23:00;;;;;;;0.95;0.20;;;;;;;22.31;33.04;102834.91;4984673;28;20057;-68
2023/09/03 11:25:36;;;;;;;1.08;0.45;;;;;;;22.63;31.70;102829.44;4980323;28;20042;-70
2023/09/03 11:28:03;;;;;;;0.70;0.20;;;;;;;21.38;34.21;102838.41;4981960;28;20050;-68
2023/09/03 11:30:29;;;;;;;0.60;0.10;;;;;;;21.73;34.73;102828.47;4979184;28;20038;-69
2023/09/03 11:32:55;;;;;;;1.45;0.30;;;;;;;21.69;33.69;102826.94;4969416;28;20740;-68
2023/09/03 11:35:21;;;;;;;1.33;0.15;;;;;;;21.57;34.26;102833.81;4982566;28;20582;-68